Etusivu
METAR-TAF:

METAR-TAF

Lentoasemat :

Ivujivik, Quebec, Kanada

Leveyspiiri: 62-25N, Pituuspiiri: 077-57W, korkeus merenpinnasta: 42 m

Tämänhetkinen sää

Tämä raportti tehtiin 8 tuntia ja 45 minuuttia sitten, kello 19.00 UTC
Tuuli 8 kn pohjoisesta/koillisesta
Lämpötila -8°C
Kosteus 92%
Ilmanpaine 1020 hPa
Näkyvyys: 24.1 km
Muutamia pilviä 300 ft:n korkeudessa
Muutamia pilviä 800 ft:n korkeudessa
Muutamia pilviä 1300 ft:n korkeudessa

METAR: CYIK 091900Z 03008KT 15SM FEW003 FEW008 FEW013 M08/M09 A3012 RMK ST1ST1ST1 ST TR ST TR ST TR SN CVR MEDIUM PACK LAST STFD OBS/NEXT 101200UTC SLP205

Aika: 23:45 (03:45 UTC)

Sääennuste

Tämä raportti tehtiin 14 tuntia ja 4 minuuttia sitten, kello 13.41 UTC
Ennuste voimassa 09. päivästä klo 14 UTC - 09. päivään klo 21 UTC
Tuuli 3 kn eri suunnista
Näkyvyys: 10 km
selkeää

TAF: CYIK 091341Z 0914/0921 VRB03KT P6SM SKC RMK NXT FCST WILL BE ISSUED AT 101345Z

Säähavainnot ja -ennusteet yli 4000 lentoasemalta (METAR- ja TAF-raportit).

Käytössä olevat sääasemat on merkitty karttaan keltaisilla ja punaisilla pisteillä.

Aseta hiiri pisteen päälle nähdäksesi sääaseman nimen.

Klikkaa sitten nähdäksesi säähavainnot ja -ennusteet.

Kartan vaihtaminen: klikkaa mustalla rastilla varustettuja vihreitä pisteitä, niin voit zoomata sisään; viivalla varustettua vihreää pistettä, niin voit zoomata ulos tai vihreitä nuolia, niin pääset viereisille kartoille.


METAR-TAF: